Terminal Aerodrome Forecast
Issued by NWS

Current Version | Previous Version | Text Only | Print | Product List | Glossary On
Versions: 1 2 3 4 5 6 7 8 9 10 11 12 13 14 15 16 17
000
FTUS44 KSJT 222100 AAA
TAFSOA
TAF AMD
KSOA 222141Z 2222/2318 17013G20KT P6SM SKC
     FM230100 17008KT P6SM SKC
     FM231600 18011KT P6SM FEW250=

USA.gov is the U.S. government's official web portal to all federal, state and local government web resources and services.